Terminal Aerodrome Forecast
Issued by NWS

Home | Current Version | Previous Version | Text Only | Print | Product List | Glossary On
Versions: 1 2 3 4 5 6 7 8 9 10 11 12 13 14
000
FTUS42 TJSJ 211700 RRA
TAFISX
TAF
TISX 211743Z 2118/2218 06012KT P6SM SCT035
     FM212300 06006KT P6SM VCSH FEW030
     FM221400 11012KT P6SM FEW025
      AMD NOT SKED=

USA.gov is the U.S. government's official web portal to all federal, state and local government web resources and services.